Terminal Aerodrome Forecast
Issued by NWS Quad Cities IA IL

Home | Current Version | Previous Version | Text Only | Print | Product List | Glossary On
Versions: 1 2 3 4 5 6 7 8 9 10 11 12 13 14 15 16 17 18 19 20 21 22 23 24 25 26 27 28 29 30 31 32
909
FTUS43 KDVN 291213 AAA
TAFMLI
TAF AMD
KMLI 291213Z 2912/3012 08006KT 1SM BR BKN004
      TEMPO 2912/2913 1/2SM FG OVC003
     FM291400 11006KT P6SM SCT005
      TEMPO 2917/2921 4SM TSRA BR BKN035CB
     FM292100 14005KT P6SM BKN050 PROB30 2921/3001 3SM TSRA BR
      BKN035CB
     FM300700 VRB03KT 4SM BR SCT150=

USA.gov is the U.S. government's official web portal to all federal, state and local government web resources and services.